createdAt,value
2022-09-04T00:02:02.370Z,15.10
2022-09-04T00:04:41.105Z,15.10
2022-09-04T00:07:19.088Z,15.10
2022-09-04T00:09:54.450Z,15.10
2022-09-04T00:12:27.968Z,15.10
2022-09-04T00:15:03.614Z,15.10
2022-09-04T00:17:36.935Z,15.00
2022-09-04T00:20:09.014Z,15.00
2022-09-04T00:22:52.328Z,15.00
2022-09-04T00:25:26.217Z,15.00
2022-09-04T00:28:01.964Z,15.00
2022-09-04T00:30:32.449Z,14.90
2022-09-04T00:33:06.271Z,15.00
2022-09-04T00:35:38.374Z,14.90
2022-09-04T00:38:11.799Z,14.90
2022-09-04T00:40:42.376Z,15.00
2022-09-04T00:43:58.130Z,14.90
2022-09-04T00:47:17.718Z,14.90
2022-09-04T00:49:57.830Z,14.90
2022-09-04T00:52:43.304Z,14.90
2022-09-04T00:55:28.115Z,14.80
2022-09-04T00:58:16.739Z,14.80
2022-09-04T01:00:47.783Z,14.90
2022-09-04T01:03:48.507Z,14.90
2022-09-04T01:06:35.350Z,14.80
2022-09-04T01:09:36.565Z,14.90
2022-09-04T01:12:14.637Z,14.90
2022-09-04T01:14:53.128Z,14.90
2022-09-04T01:17:29.177Z,14.80
2022-09-04T01:20:03.758Z,14.90
2022-09-04T01:22:58.988Z,14.80
2022-09-04T01:25:43.717Z,14.90
2022-09-04T01:28:21.386Z,14.80
2022-09-04T01:30:55.492Z,14.80
2022-09-04T01:33:31.085Z,14.80
2022-09-04T01:36:06.881Z,14.80
2022-09-04T01:38:41.230Z,14.80
2022-09-04T01:41:16.990Z,14.70
2022-09-04T01:43:44.877Z,14.70
2022-09-04T01:46:36.227Z,14.70
2022-09-04T01:49:10.760Z,14.70
2022-09-04T01:51:43.544Z,14.70
2022-09-04T01:54:28.059Z,14.70
2022-09-04T01:57:09.330Z,14.70
2022-09-04T01:59:49.757Z,14.70
2022-09-04T02:02:26.570Z,14.70
2022-09-04T02:05:06.281Z,14.70
2022-09-04T02:07:46.409Z,14.70
2022-09-04T02:10:23.686Z,14.70
2022-09-04T02:13:04.972Z,14.70
2022-09-04T02:15:41.210Z,14.70
2022-09-04T02:18:19.777Z,14.60
2022-09-04T02:20:57.534Z,14.60
2022-09-04T02:23:35.495Z,14.60
2022-09-04T02:26:13.231Z,14.60
2022-09-04T02:28:50.923Z,14.60
2022-09-04T02:31:28.933Z,14.60
2022-09-04T02:34:06.612Z,14.60
2022-09-04T02:36:41.972Z,14.60
2022-09-04T02:39:23.007Z,14.60
2022-09-04T02:41:58.385Z,14.60
2022-09-04T02:44:36.595Z,14.60
2022-09-04T02:47:14.160Z,14.60
2022-09-04T02:49:52.539Z,14.60
2022-09-04T02:52:33.513Z,14.70
2022-09-04T02:55:18.395Z,14.70
2022-09-04T02:57:59.057Z,14.80
2022-09-04T03:00:40.274Z,14.80
2022-09-04T03:03:13.334Z,14.70
2022-09-04T03:05:46.638Z,14.70
2022-09-04T03:08:20.002Z,14.80
2022-09-04T03:10:53.291Z,14.70
2022-09-04T03:13:26.410Z,14.60
2022-09-04T03:16:02.575Z,14.60
2022-09-04T03:18:36.001Z,14.60
2022-09-04T03:21:09.796Z,14.70
2022-09-04T03:23:46.257Z,14.60
2022-09-04T03:26:22.734Z,14.60
2022-09-04T03:29:03.696Z,14.50
2022-09-04T03:31:41.387Z,14.50
2022-09-04T03:34:19.693Z,14.50
2022-09-04T03:36:58.813Z,14.60
2022-09-04T03:39:39.091Z,14.60
2022-09-04T03:42:20.700Z,14.60
2022-09-04T03:45:03.682Z,14.60
2022-09-04T03:47:42.840Z,14.60
2022-09-04T03:50:19.392Z,14.50
2022-09-04T03:52:57.593Z,14.50
2022-09-04T03:55:45.861Z,14.50
2022-09-04T03:58:25.152Z,14.50
2022-09-04T04:01:04.236Z,14.50
2022-09-04T04:03:47.689Z,14.40
2022-09-04T04:06:24.294Z,14.50
2022-09-04T04:09:26.249Z,14.40
2022-09-04T04:12:35.029Z,14.40
2022-09-04T04:15:28.653Z,14.30
2022-09-04T04:18:13.953Z,14.30
2022-09-04T04:20:51.053Z,14.40
2022-09-04T04:23:42.692Z,14.40
2022-09-04T04:26:14.928Z,14.40
2022-09-04T04:29:13.246Z,14.40
2022-09-04T04:32:10.753Z,14.30
2022-09-04T04:34:50.618Z,14.30
2022-09-04T04:37:27.065Z,14.30
2022-09-04T04:40:03.755Z,14.30
2022-09-04T04:42:37.734Z,14.30
2022-09-04T04:45:38.518Z,14.30
2022-09-04T04:48:34.420Z,14.30
2022-09-04T04:51:13.702Z,14.40
2022-09-04T04:53:50.285Z,14.40
2022-09-04T04:56:27.260Z,14.40
2022-09-04T04:59:07.780Z,14.40
2022-09-04T05:01:45.519Z,14.30
2022-09-04T05:04:23.593Z,14.30
2022-09-04T05:06:57.429Z,14.30
2022-09-04T05:09:38.609Z,14.20
2022-09-04T05:12:16.098Z,14.20
2022-09-04T05:14:53.506Z,14.20
2022-09-04T05:17:36.496Z,14.30
2022-09-04T05:20:25.561Z,14.30
2022-09-04T05:23:03.149Z,14.20
2022-09-04T05:25:39.388Z,14.30
2022-09-04T05:28:20.506Z,14.30
2022-09-04T05:30:57.252Z,14.30
2022-09-04T05:33:35.581Z,14.20
2022-09-04T05:36:10.925Z,14.20
2022-09-04T05:38:47.798Z,14.30
2022-09-04T05:41:33.389Z,14.30
2022-09-04T05:44:20.293Z,14.40
2022-09-04T05:47:02.696Z,14.50
2022-09-04T05:49:48.163Z,14.90
2022-09-04T05:52:41.420Z,16.10
2022-09-04T05:55:32.723Z,17.10
2022-09-04T05:58:17.817Z,17.10
2022-09-04T06:00:54.052Z,16.20
2022-09-04T06:03:45.253Z,17.10
2022-09-04T06:06:21.460Z,17.80
2022-09-04T06:09:06.953Z,18.10
2022-09-04T06:12:19.201Z,18.60
2022-09-04T06:15:05.981Z,19.30
2022-09-04T06:17:49.057Z,18.90
2022-09-04T06:20:32.809Z,19.40
2022-09-04T06:23:18.488Z,20.10
2022-09-04T06:26:22.911Z,20.50
2022-09-04T06:29:12.078Z,20.70
2022-09-04T06:32:10.484Z,21.60
2022-09-04T06:35:03.316Z,20.90
2022-09-04T06:37:38.327Z,20.70
2022-09-04T06:40:24.653Z,21.10
2022-09-04T06:43:04.785Z,21.80
2022-09-04T06:45:43.545Z,22.60
2022-09-04T06:48:24.895Z,23.10
2022-09-04T06:51:03.393Z,22.80
2022-09-04T06:53:42.467Z,22.30
2022-09-04T06:56:28.610Z,22.90
2022-09-04T06:59:18.525Z,20.60
2022-09-04T07:02:00.307Z,19.10
2022-09-04T07:04:45.732Z,18.00
2022-09-04T07:07:21.782Z,17.40
2022-09-04T07:09:55.939Z,17.40
2022-09-04T07:12:45.645Z,17.80
2022-09-04T07:15:42.265Z,17.80
2022-09-04T07:18:24.063Z,17.30
2022-09-04T07:21:04.433Z,17.70
2022-09-04T07:23:44.997Z,17.60
2022-09-04T07:26:28.345Z,17.50
2022-09-04T07:29:12.273Z,17.40
2022-09-04T07:31:45.476Z,17.30
2022-09-04T07:34:19.712Z,17.50
2022-09-04T07:36:57.083Z,17.90
2022-09-04T07:39:31.225Z,18.00
2022-09-04T07:42:05.904Z,18.00
2022-09-04T07:44:40.201Z,18.20
2022-09-04T07:47:14.292Z,17.40
2022-09-04T07:49:52.452Z,17.60
2022-09-04T07:52:36.557Z,18.10
2022-09-04T07:55:18.385Z,18.10
2022-09-04T07:58:04.536Z,17.90
2022-09-04T08:00:40.558Z,18.20
2022-09-04T08:03:26.388Z,18.00
2022-09-04T08:06:01.516Z,18.10
2022-09-04T08:09:07.259Z,18.00
2022-09-04T08:11:50.125Z,18.30
2022-09-04T08:14:32.410Z,18.40
2022-09-04T08:17:25.660Z,18.40
2022-09-04T08:20:04.023Z,17.90
2022-09-04T08:22:41.618Z,18.50
2022-09-04T08:25:18.114Z,18.30
2022-09-04T08:28:01.476Z,18.00
2022-09-04T08:30:38.436Z,17.50
2022-09-04T08:33:31.329Z,18.20
2022-09-04T08:36:03.072Z,18.50
2022-09-04T08:38:42.521Z,18.40
2022-09-04T08:41:50.298Z,17.50
2022-09-04T08:44:45.740Z,17.70
2022-09-04T08:47:53.487Z,18.20
2022-09-04T08:51:04.981Z,17.70
2022-09-04T08:54:20.888Z,17.60
2022-09-04T08:57:16.588Z,18.20
2022-09-04T09:00:07.957Z,18.80
2022-09-04T09:03:13.446Z,18.40
2022-09-04T09:06:16.226Z,18.20
2022-09-04T09:09:29.803Z,18.10
2022-09-04T09:12:41.428Z,18.30
2022-09-04T09:15:43.052Z,18.80
2022-09-04T09:18:27.125Z,19.00
2022-09-04T09:21:02.662Z,18.80
2022-09-04T09:23:48.398Z,19.20
2022-09-04T09:26:26.463Z,19.10
2022-09-04T09:29:27.676Z,19.10
2022-09-04T09:32:31.327Z,19.60
2022-09-04T09:35:46.237Z,19.30
2022-09-04T09:38:44.467Z,19.50
2022-09-04T09:41:45.232Z,19.80
2022-09-04T09:44:52.104Z,19.60
2022-09-04T09:48:00.805Z,19.30
2022-09-04T09:51:01.256Z,19.40
2022-09-04T09:53:47.473Z,19.60
2022-09-04T09:56:53.906Z,19.50
2022-09-04T09:59:58.745Z,19.90
2022-09-04T10:03:04.048Z,21.00
2022-09-04T10:06:00.685Z,21.00
2022-09-04T10:09:14.162Z,20.50
2022-09-04T10:12:18.367Z,20.40
2022-09-04T10:15:17.822Z,20.10
2022-09-04T10:18:38.042Z,19.70
2022-09-04T10:21:25.913Z,19.50
2022-09-04T10:24:21.913Z,20.00
2022-09-04T10:27:17.318Z,20.60
2022-09-04T10:30:01.685Z,20.70
2022-09-04T10:32:58.104Z,21.20
2022-09-04T10:35:31.688Z,21.20
2022-09-04T10:38:27.639Z,21.70
2022-09-04T10:41:28.566Z,21.80
2022-09-04T10:44:21.282Z,21.60
2022-09-04T10:47:00.958Z,21.50
2022-09-04T10:49:49.881Z,21.00
2022-09-04T10:53:01.208Z,21.30
2022-09-04T10:56:01.221Z,21.10
2022-09-04T10:59:03.236Z,21.20
2022-09-04T11:02:11.079Z,21.40
2022-09-04T11:05:12.547Z,21.60
2022-09-04T11:08:09.206Z,21.70
2022-09-04T11:11:08.785Z,21.30
2022-09-04T11:14:06.365Z,21.50
2022-09-04T11:16:58.485Z,21.70
2022-09-04T11:19:51.617Z,21.70
2022-09-04T11:22:52.778Z,21.80
2022-09-04T11:26:06.062Z,21.50
2022-09-04T11:28:55.763Z,21.40
2022-09-04T11:31:59.018Z,21.30
2022-09-04T11:35:09.376Z,21.60
2022-09-04T11:37:59.326Z,21.70
2022-09-04T11:41:08.579Z,22.10
2022-09-04T11:44:01.497Z,21.90
2022-09-04T11:46:52.593Z,21.50
2022-09-04T11:49:48.398Z,21.40
2022-09-04T11:52:23.830Z,21.20
2022-09-04T11:55:25.769Z,21.20
2022-09-04T11:58:17.709Z,21.60
2022-09-04T12:00:58.354Z,21.90
2022-09-04T12:03:51.244Z,22.10
2022-09-04T12:06:37.354Z,22.30
2022-09-04T12:09:30.170Z,22.30
2022-09-04T12:12:15.126Z,21.90
2022-09-04T12:15:09.498Z,21.70
2022-09-04T12:18:14.237Z,21.50
2022-09-04T12:21:13.502Z,21.50
2022-09-04T12:24:05.997Z,21.60
2022-09-04T12:27:04.580Z,22.10
2022-09-04T12:30:06.455Z,22.70
2022-09-04T12:33:07.547Z,22.80
2022-09-04T12:36:14.471Z,22.80
2022-09-04T12:39:03.536Z,22.50
2022-09-04T12:41:36.420Z,22.30
2022-09-04T12:44:14.047Z,22.30
2022-09-04T12:46:56.831Z,22.30
2022-09-04T12:49:51.538Z,22.60
2022-09-04T12:52:31.511Z,23.00
2022-09-04T12:55:10.937Z,23.20
2022-09-04T12:57:48.585Z,23.30
2022-09-04T13:00:18.018Z,23.40
2022-09-04T13:02:57.125Z,22.90
2022-09-04T13:05:52.953Z,23.00
2022-09-04T13:08:31.478Z,22.70
2022-09-04T13:11:14.519Z,22.50
2022-09-04T13:13:53.254Z,22.30
2022-09-04T13:16:27.396Z,22.40
2022-09-04T13:19:07.111Z,22.70
2022-09-04T13:21:54.828Z,22.50
2022-09-04T13:24:39.942Z,22.90
2022-09-04T13:27:26.561Z,22.80
2022-09-04T13:30:08.192Z,22.60
2022-09-04T13:32:54.421Z,22.20
2022-09-04T13:35:50.057Z,22.60
2022-09-04T13:38:35.740Z,22.90
2022-09-04T13:41:30.506Z,23.10
2022-09-04T13:44:19.337Z,23.10
2022-09-04T13:46:58.217Z,23.10
2022-09-04T13:49:30.611Z,23.30
2022-09-04T13:52:07.237Z,22.60
2022-09-04T13:54:40.421Z,22.50
2022-09-04T13:57:16.586Z,22.40
2022-09-04T13:59:50.054Z,22.60
2022-09-04T14:02:24.392Z,22.90
2022-09-04T14:04:56.202Z,22.90
2022-09-04T14:07:29.296Z,22.90
2022-09-04T14:10:00.440Z,22.80
2022-09-04T14:13:00.062Z,22.80
2022-09-04T14:15:59.779Z,22.80
2022-09-04T14:18:45.619Z,22.80
2022-09-04T14:21:20.494Z,22.40
2022-09-04T14:23:54.333Z,22.50
2022-09-04T14:26:34.007Z,22.70
2022-09-04T14:29:15.948Z,22.50
2022-09-04T14:31:55.817Z,22.70
2022-09-04T14:34:38.710Z,22.70
2022-09-04T14:37:19.258Z,22.80
2022-09-04T14:39:55.085Z,22.90
2022-09-04T14:42:42.462Z,22.80
2022-09-04T14:45:31.354Z,22.80
2022-09-04T14:48:03.660Z,22.80
2022-09-04T14:50:44.274Z,22.70
2022-09-04T14:53:19.762Z,22.70
2022-09-04T14:56:16.601Z,22.80
2022-09-04T14:58:50.605Z,22.70
2022-09-04T15:01:21.917Z,22.80
2022-09-04T15:03:56.344Z,22.80
2022-09-04T15:06:32.503Z,22.80
2022-09-04T15:09:18.982Z,22.70
2022-09-04T15:11:47.208Z,22.70
2022-09-04T15:14:28.315Z,22.80
2022-09-04T15:17:01.043Z,22.80
2022-09-04T15:19:47.387Z,22.80
2022-09-04T15:22:20.916Z,22.70
2022-09-04T15:24:56.026Z,22.70
2022-09-04T15:27:32.108Z,22.80
2022-09-04T15:30:06.505Z,22.60
2022-09-04T15:32:41.729Z,22.50
2022-09-04T15:35:23.848Z,22.60
2022-09-04T15:38:04.769Z,22.50
2022-09-04T15:40:37.008Z,22.50
2022-09-04T15:43:11.581Z,22.60
2022-09-04T15:45:47.289Z,22.70
2022-09-04T15:48:42.024Z,22.50
2022-09-04T15:51:20.417Z,22.50
2022-09-04T15:54:01.748Z,22.50
2022-09-04T15:56:36.862Z,22.40
2022-09-04T15:59:12.045Z,22.40
2022-09-04T16:01:48.579Z,22.40
2022-09-04T16:04:26.196Z,22.50
2022-09-04T16:06:58.043Z,22.40
2022-09-04T16:09:32.542Z,22.30
2022-09-04T16:12:11.201Z,22.40
2022-09-04T16:14:44.961Z,22.30
2022-09-04T16:17:20.052Z,22.20
2022-09-04T16:19:57.744Z,22.20
2022-09-04T16:22:38.394Z,22.10
2022-09-04T16:25:11.050Z,22.20
2022-09-04T16:27:45.185Z,22.10
2022-09-04T16:30:30.098Z,22.00
2022-09-04T16:32:58.825Z,22.00
2022-09-04T16:35:32.452Z,22.00
2022-09-04T16:38:08.033Z,22.00
2022-09-04T16:40:40.276Z,22.10
2022-09-04T16:43:19.779Z,21.90
2022-09-04T16:45:51.979Z,21.90
2022-09-04T16:48:34.891Z,21.90
2022-09-04T16:51:39.083Z,21.80
2022-09-04T16:54:05.534Z,21.80
2022-09-04T16:56:38.400Z,21.70
2022-09-04T16:59:23.158Z,21.60
2022-09-04T17:01:58.269Z,21.60
2022-09-04T17:04:37.987Z,21.40
2022-09-04T17:07:18.714Z,21.50
2022-09-04T17:09:55.811Z,21.50
2022-09-04T17:12:36.690Z,21.40
2022-09-04T17:15:13.542Z,21.30
2022-09-04T17:17:43.461Z,21.10
2022-09-04T17:20:13.742Z,20.90
2022-09-04T17:28:55.227Z,20.80
2022-09-04T17:29:13.982Z,20.70
2022-09-04T17:29:15.827Z,20.70
2022-09-04T17:31:46.199Z,20.70
2022-09-04T17:39:47.728Z,20.70
2022-09-04T17:40:41.634Z,20.70
2022-09-04T17:40:49.877Z,20.70
2022-09-04T17:43:22.371Z,20.60
2022-09-04T17:46:02.794Z,20.60
2022-09-04T17:48:33.152Z,20.60
2022-09-04T17:51:03.843Z,20.60
2022-09-04T17:53:35.164Z,20.50
2022-09-04T17:56:11.201Z,20.40
2022-09-04T17:58:46.933Z,20.40
2022-09-04T18:01:25.064Z,20.40
2022-09-04T18:04:21.984Z,20.40
2022-09-04T18:06:55.617Z,20.30
2022-09-04T18:09:29.850Z,20.30
2022-09-04T18:12:10.839Z,20.20
2022-09-04T18:14:45.202Z,20.20
2022-09-04T18:17:21.564Z,20.10
2022-09-04T18:19:52.642Z,20.10
2022-09-04T18:22:32.052Z,20.00
2022-09-04T18:25:15.831Z,20.00
2022-09-04T18:28:06.379Z,20.00
2022-09-04T18:37:08.938Z,20.00
2022-09-04T18:37:18.211Z,19.90
2022-09-04T18:37:19.203Z,19.90
2022-09-04T18:39:48.376Z,19.80
2022-09-04T18:50:29.962Z,19.80
2022-09-04T18:50:32.089Z,19.70
2022-09-04T18:50:32.730Z,19.70
2022-09-04T18:51:18.679Z,19.70
2022-09-04T18:53:50.753Z,19.70
2022-09-04T18:56:23.374Z,19.60
2022-09-04T18:59:00.306Z,19.60
2022-09-04T19:01:39.642Z,19.60
2022-09-04T19:04:36.425Z,19.50
2022-09-04T19:07:09.016Z,19.50
2022-09-04T19:09:56.150Z,19.50
2022-09-04T19:12:35.669Z,19.40
2022-09-04T19:15:36.033Z,19.40
2022-09-04T19:18:14.879Z,19.30
2022-09-04T19:20:48.788Z,19.30
2022-09-04T19:23:28.941Z,19.30
2022-09-04T19:26:00.520Z,19.30
2022-09-04T19:28:40.664Z,19.20
2022-09-04T19:31:30.292Z,19.20
2022-09-04T19:34:06.137Z,19.20
2022-09-04T19:36:40.268Z,19.10
2022-09-04T19:45:56.940Z,19.10
2022-09-04T19:46:01.905Z,19.10
2022-09-04T19:46:09.323Z,19.00
2022-09-04T19:48:20.558Z,19.00
2022-09-04T19:53:19.368Z,19.00
2022-09-04T19:53:56.596Z,19.00
2022-09-04T19:56:30.331Z,18.90
2022-09-04T19:59:06.304Z,18.90
2022-09-04T20:01:45.662Z,18.80
2022-09-04T20:04:25.735Z,18.80
2022-09-04T20:06:59.180Z,18.80
2022-09-04T20:09:33.213Z,18.70
2022-09-04T20:12:11.600Z,18.70
2022-09-04T20:14:45.138Z,18.70
2022-09-04T20:17:29.123Z,18.70
2022-09-04T20:20:00.368Z,18.60
2022-09-04T20:22:35.707Z,18.60
2022-09-04T20:25:19.831Z,18.50
2022-09-04T20:27:51.861Z,18.50
2022-09-04T20:30:23.889Z,18.50
2022-09-04T20:32:59.040Z,18.40
2022-09-04T20:35:35.084Z,18.40
2022-09-04T20:38:23.424Z,18.40
2022-09-04T20:40:56.241Z,18.40
2022-09-04T20:43:32.117Z,18.40
2022-09-04T20:49:41.671Z,18.40
2022-09-04T20:52:45.324Z,18.40
2022-09-04T20:52:56.060Z,18.30
2022-09-04T20:55:10.053Z,18.20
2022-09-04T21:03:14.378Z,18.20
2022-09-04T21:03:18.786Z,18.20
2022-09-04T21:04:04.649Z,18.10
2022-09-04T21:06:39.712Z,18.20
2022-09-04T21:09:19.283Z,18.10
2022-09-04T21:11:52.599Z,18.10
2022-09-04T21:14:27.367Z,18.10
2022-09-04T21:17:34.265Z,18.00
2022-09-04T21:20:27.476Z,18.00
2022-09-04T21:23:11.280Z,18.00
2022-09-04T21:25:56.801Z,17.90
2022-09-04T21:28:50.474Z,17.90
2022-09-04T21:31:44.122Z,17.90
2022-09-04T21:34:31.585Z,17.80
2022-09-04T21:37:06.258Z,17.90
2022-09-04T21:39:58.793Z,17.80
2022-09-04T21:42:56.937Z,17.80
2022-09-04T21:45:40.473Z,17.70
2022-09-04T21:48:51.310Z,17.80
2022-09-04T21:51:37.632Z,17.70
2022-09-04T21:55:44.365Z,17.70
2022-09-04T22:02:27.113Z,17.60
2022-09-04T22:02:37.800Z,17.60
2022-09-04T22:04:01.423Z,17.60
2022-09-04T22:08:34.592Z,17.60
2022-09-04T22:13:31.196Z,17.50
2022-09-04T22:13:38.174Z,17.50
2022-09-04T22:15:35.389Z,17.50
2022-09-04T22:18:29.664Z,17.40
2022-09-04T22:21:16.195Z,17.40
2022-09-04T22:24:29.010Z,17.40
2022-09-04T22:27:19.516Z,17.30
2022-09-04T22:30:15.000Z,17.30
2022-09-04T22:33:24.496Z,17.30
2022-09-04T22:36:18.778Z,17.30
2022-09-04T22:39:19.787Z,17.30
2022-09-04T22:42:32.103Z,17.20
2022-09-04T22:45:27.821Z,17.20
2022-09-04T22:48:22.684Z,17.10
2022-09-04T22:51:11.873Z,17.10
2022-09-04T22:54:02.552Z,17.10
2022-09-04T22:56:44.973Z,17.10
2022-09-04T23:02:14.849Z,17.10
2022-09-04T23:05:09.228Z,17.10
2022-09-04T23:13:46.900Z,17.10
2022-09-04T23:13:52.186Z,17.00
2022-09-04T23:14:08.361Z,16.90
2022-09-04T23:16:56.037Z,16.90
2022-09-04T23:26:38.272Z,16.80
2022-09-04T23:26:42.363Z,16.80
2022-09-04T23:26:46.033Z,16.80
2022-09-04T23:29:24.263Z,16.80
2022-09-04T23:32:16.590Z,16.70
2022-09-04T23:35:14.896Z,16.70
2022-09-04T23:38:00.949Z,16.70
2022-09-04T23:40:39.071Z,16.70
2022-09-04T23:43:43.237Z,16.70
2022-09-04T23:46:25.652Z,16.60
2022-09-04T23:49:24.980Z,16.60
2022-09-04T23:52:03.008Z,16.60
2022-09-04T23:54:59.320Z,16.60
2022-09-04T23:57:32.201Z,16.60
